Time;durP1;ratioP1;P1;durP2;ratioP2;P2;SDS_P1;SDS_P2;PMS_P1;PMS_P2;Temp;Humidity;BMP_temperature;BMP_pressure;BME280_temperature;BME280_humidity;BME280_pressure;Samples;Min_cycle;Max_cycle;Signal;HPM_P1;HPM_P2
2023/10/14 00:01:13;;;;;;;17.40;6.18;;;18.30;99.90;;;;;;5099876;28;20380;-84
2023/10/14 00:03:45;;;;;;;18.60;5.72;;;18.20;99.90;;;;;;5097808;28;20335;-85
2023/10/14 00:06:12;;;;;;;32.63;6.97;;;18.20;99.90;;;;;;5101712;28;20027;-86
2023/10/14 00:08:48;;;;;;;18.98;7.00;;;18.00;99.90;;;;;;5099408;28;20019;-87
2023/10/14 00:11:17;;;;;;;18.23;7.80;;;18.00;99.90;;;;;;5100979;28;20022;-86
2023/10/14 00:13:49;;;;;;;22.02;6.78;;;17.90;99.90;;;;;;5099070;28;20031;-87
2023/10/14 00:18:59;;;;;;;15.40;5.97;;;17.80;99.90;;;;;;5096708;28;20035;-85
2023/10/14 00:21:26;;;;;;;18.38;8.32;;;17.80;99.90;;;;;;5105211;28;20114;-87
2023/10/14 00:23:57;;;;;;;22.38;6.20;;;17.80;99.90;;;;;;5102366;28;20221;-87
2023/10/14 00:26:24;;;;;;;16.70;6.93;;;17.80;99.90;;;;;;5105985;27;20035;-86
2023/10/14 00:28:54;;;;;;;22.35;6.78;;;17.70;99.90;;;;;;5111944;27;20027;-83
2023/10/14 00:31:23;;;;;;;20.20;6.53;;;17.80;99.90;;;;;;5105315;28;20456;-82
2023/10/14 00:33:52;;;;;;;12.63;6.32;;;17.80;99.90;;;;;;5090994;27;20042;-82
2023/10/14 00:36:22;;;;;;;20.42;6.63;;;17.80;99.90;;;;;;5104417;28;20532;-85
2023/10/14 00:38:57;;;;;;;21.10;7.10;;;17.80;99.90;;;;;;5107449;28;20011;-85
2023/10/14 00:41:31;;;;;;;16.92;6.90;;;17.80;99.90;;;;;;5105964;28;20019;-84
2023/10/14 00:43:56;;;;;;;31.60;7.35;;;17.90;99.90;;;;;;5105441;28;20039;-86
2023/10/14 00:46:23;;;;;;;15.93;6.63;;;17.90;99.90;;;;;;5103900;28;20367;-84
2023/10/14 00:49:11;;;;;;;22.17;6.80;;;17.90;99.90;;;;;;5104791;28;20525;-83
2023/10/14 00:51:42;;;;;;;15.48;6.47;;;17.90;99.90;;;;;;5098529;27;20054;-84
2023/10/14 00:54:36;;;;;;;25.15;6.82;;;17.90;99.90;;;;;;5108091;27;20043;-81
2023/10/14 00:59:42;;;;;;;15.43;6.05;;;18.00;99.90;;;;;;5098605;28;20363;-90
2023/10/14 01:02:13;;;;;;;21.88;6.28;;;18.00;99.90;;;;;;5097816;27;20062;-84
2023/10/14 01:04:40;;;;;;;15.77;6.28;;;18.00;99.90;;;;;;5104780;28;20287;-85
2023/10/14 01:07:12;;;;;;;26.48;5.80;;;18.00;99.90;;;;;;5085906;28;20026;-85
2023/10/14 01:12:21;;;;;;;20.35;6.20;;;18.00;99.90;;;;;;5103697;28;20039;-85
2023/10/14 01:14:52;;;;;;;23.30;6.13;;;17.90;99.90;;;;;;5105696;28;20018;-82
2023/10/14 01:17:31;;;;;;;16.20;5.22;;;17.90;99.90;;;;;;5098149;28;20437;-83
2023/10/14 01:20:00;;;;;;;17.38;5.40;;;17.90;99.90;;;;;;5102444;28;20077;-84
2023/10/14 01:22:29;;;;;;;10.85;4.85;;;18.00;99.90;;;;;;5094983;28;20030;-84
2023/10/14 01:24:55;;;;;;;7.82;4.65;;;18.00;99.90;;;;;;5100404;28;20028;-84
2023/10/14 01:27:25;;;;;;;13.60;4.57;;;18.00;99.90;;;;;;5105479;28;20479;-84
2023/10/14 01:29:51;;;;;;;11.23;4.32;;;17.90;99.90;;;;;;5097769;28;20520;-83
2023/10/14 01:33:12;;;;;;;20.38;5.95;;;17.90;99.90;;;;;;5102876;28;20052;-85
2023/10/14 01:37:53;;;;;;;11.00;4.40;;;17.90;99.90;;;;;;5107904;28;20107;-84
2023/10/14 01:42:57;;;;;;;21.25;6.38;;;17.80;99.90;;;;;;5096162;28;20024;-86
2023/10/14 01:45:39;;;;;;;16.83;5.82;;;17.80;99.90;;;;;;5101972;28;20019;-84
2023/10/14 01:50:40;;;;;;;18.98;7.53;;;17.80;99.90;;;;;;5103080;28;20058;-86
2023/10/14 01:53:10;;;;;;;19.63;6.93;;;17.80;99.90;;;;;;5105006;28;20084;-85
2023/10/14 01:55:41;;;;;;;16.40;6.03;;;17.70;99.90;;;;;;5104876;27;20333;-84
2023/10/14 01:58:10;;;;;;;19.88;7.10;;;17.70;99.90;;;;;;5102006;27;20077;-85
2023/10/14 02:00:37;;;;;;;23.60;8.07;;;17.60;99.90;;;;;;5103760;27;20468;-85
2023/10/14 02:03:10;;;;;;;16.15;6.70;;;17.70;99.90;;;;;;5105704;28;20999;-84
2023/10/14 02:05:45;;;;;;;21.20;7.00;;;17.70;99.90;;;;;;5098270;28;20118;-85
2023/10/14 02:08:14;;;;;;;16.30;5.30;;;17.60;99.90;;;;;;5104077;28;20016;-85
2023/10/14 02:10:46;;;;;;;13.43;6.88;;;17.60;99.90;;;;;;5104994;28;20456;-85
2023/10/14 02:13:15;;;;;;;16.70;7.32;;;17.50;99.90;;;;;;5102294;27;20054;-84
2023/10/14 02:15:46;;;;;;;20.40;7.18;;;17.40;99.90;;;;;;5104766;28;20118;-83
2023/10/14 02:18:20;;;;;;;22.13;6.65;;;17.40;99.90;;;;;;5102077;28;20015;-84
2023/10/14 02:21:04;;;;;;;19.95;6.70;;;17.40;99.90;;;;;;5102281;28;20557;-84
2023/10/14 02:23:43;;;;;;;19.92;7.00;;;17.30;99.90;;;;;;5100663;28;20030;-84
2023/10/14 02:26:24;;;;;;;21.73;6.65;;;17.30;99.90;;;;;;5112328;27;20023;-84
2023/10/14 02:28:55;;;;;;;19.13;7.25;;;17.30;99.90;;;;;;5124905;27;20019;-84
2023/10/14 02:31:35;;;;;;;27.30;7.22;;;17.30;99.90;;;;;;5135623;27;20134;-82
2023/10/14 02:34:05;;;;;;;17.95;6.97;;;17.40;99.90;;;;;;5131091;27;20111;-86
2023/10/14 02:36:35;;;;;;;27.13;7.32;;;17.50;99.90;;;;;;5123279;27;20455;-86
2023/10/14 02:39:03;;;;;;;19.45;7.18;;;17.50;99.90;;;;;;5128193;27;20016;-86
2023/10/14 02:41:32;;;;;;;20.40;7.45;;;17.70;99.90;;;;;;5140884;27;20015;-87
2023/10/14 02:46:54;;;;;;;19.77;6.95;;;17.80;99.90;;;;;;5106939;27;20050;-89
2023/10/14 02:49:24;;;;;;;19.02;6.50;;;17.90;99.90;;;;;;5130320;27;20370;-84
2023/10/14 02:51:52;;;;;;;29.30;7.80;;;18.00;99.90;;;;;;5128449;27;20068;-85
2023/10/14 02:54:33;;;;;;;14.85;6.30;;;18.00;99.90;;;;;;5134335;27;20058;-85
2023/10/14 02:59:36;;;;;;;21.35;7.80;;;18.00;99.90;;;;;;5127716;27;20466;-82
2023/10/14 03:10:28;;;;;;;15.77;6.53;;;18.30;99.90;;;;;;5136900;27;20394;-85
2023/10/14 03:12:57;;;;;;;28.30;6.63;;;18.30;99.90;;;;;;5129357;27;20054;-84
2023/10/14 03:15:23;;;;;;;20.35;6.18;;;18.30;99.90;;;;;;5117500;27;20019;-84
2023/10/14 03:22:58;;;;;;;22.52;7.10;;;18.30;99.90;;;;;;5123699;27;20114;-86
2023/10/14 03:25:25;;;;;;;23.38;7.25;;;18.30;99.90;;;;;;5124404;27;20354;-86
2023/10/14 03:28:11;;;;;;;23.02;7.45;;;18.30;99.90;;;;;;5124903;27;20515;-81
2023/10/14 03:30:47;;;;;;;25.48;7.30;;;18.40;99.90;;;;;;5117881;27;20027;-88
2023/10/14 03:33:20;;;;;;;29.50;8.77;;;18.40;99.90;;;;;;5123313;27;20058;-85
2023/10/14 03:36:28;;;;;;;24.35;6.82;;;18.40;99.90;;;;;;5115378;27;20068;-86
2023/10/14 03:38:55;;;;;;;14.45;5.80;;;18.50;99.90;;;;;;5120505;27;20399;-85
2023/10/14 03:41:24;;;;;;;20.65;6.38;;;18.50;99.90;;;;;;5126441;27;20047;-85
2023/10/14 03:46:43;;;;;;;19.52;6.47;;;18.50;99.90;;;;;;5107695;27;20019;-84
2023/10/14 03:49:27;;;;;;;18.88;6.22;;;18.50;99.90;;;;;;5097127;27;20042;-84
2023/10/14 03:51:56;;;;;;;17.42;5.78;;;18.50;99.90;;;;;;5128888;27;20034;-82
2023/10/14 03:54:28;;;;;;;14.65;4.85;;;18.50;99.90;;;;;;5130248;27;20023;-86
2023/10/14 03:56:57;;;;;;;25.30;7.53;;;18.60;99.90;;;;;;5128879;27;20022;-93
2023/10/14 03:59:25;;;;;;;18.40;5.78;;;18.60;99.90;;;;;;5128934;27;20019;-85
2023/10/14 04:01:57;;;;;;;16.77;6.65;;;18.60;99.90;;;;;;5126280;27;20031;-89
2023/10/14 04:04:29;;;;;;;20.08;6.35;;;18.50;99.90;;;;;;5110471;27;20376;-85
2023/10/14 04:09:39;;;;;;;23.50;7.32;;;18.40;99.90;;;;;;5123454;27;20031;-85
2023/10/14 04:12:09;;;;;;;15.50;6.28;;;18.30;99.90;;;;;;5119277;27;20087;-90
2023/10/14 04:14:44;;;;;;;14.70;6.43;;;18.10;99.90;;;;;;5132610;27;20370;-84
2023/10/14 04:17:10;;;;;;;23.40;6.43;;;17.80;99.90;;;;;;5125106;27;20640;-87
2023/10/14 04:19:46;;;;;;;17.23;6.88;;;17.60;99.90;;;;;;5129646;27;20061;-87
2023/10/14 04:22:31;;;;;;;15.07;5.75;;;17.40;99.90;;;;;;5134367;27;20079;-91
2023/10/14 04:30:31;;;;;;;14.48;5.82;;;17.00;99.90;;;;;;5131436;27;20031;-84
2023/10/14 04:35:31;;;;;;;15.27;4.70;;;16.90;99.90;;;;;;5129872;27;20023;-86
2023/10/14 04:38:16;;;;;;;16.77;4.40;;;16.90;99.90;;;;;;5129486;27;20023;-81
2023/10/14 04:40:53;;;;;;;11.73;4.30;;;16.80;99.90;;;;;;5132127;27;20075;-87
2023/10/14 04:43:19;;;;;;;12.10;3.58;;;16.80;99.90;;;;;;5118417;27;20027;-88
2023/10/14 04:46:13;;;;;;;10.05;4.07;;;16.80;99.90;;;;;;5125998;27;20025;-85
2023/10/14 04:48:39;;;;;;;10.43;3.20;;;16.70;99.90;;;;;;5124115;27;20474;-88
2023/10/14 04:51:30;;;;;;;10.50;3.13;;;16.70;99.90;;;;;;5132100;27;20027;-88
2023/10/14 04:54:00;;;;;;;10.20;2.05;;;16.70;99.90;;;;;;5120849;27;20101;-83
2023/10/14 04:56:32;;;;;;;5.40;1.30;;;16.50;99.90;;;;;;5122993;27;20576;-86
2023/10/14 04:59:05;;;;;;;4.93;1.10;;;16.20;99.90;;;;;;5122392;27;20371;-91
2023/10/14 05:01:31;;;;;;;3.63;0.90;;;15.80;99.90;;;;;;5128668;27;20030;-87
2023/10/14 05:03:58;;;;;;;4.10;1.00;;;15.30;99.90;;;;;;5134646;27;20172;-87
2023/10/14 05:06:30;;;;;;;6.60;0.98;;;14.90;99.90;;;;;;5123725;27;20106;-82
2023/10/14 05:08:57;;;;;;;3.30;0.90;;;14.60;99.90;;;;;;5131546;27;20038;-85
2023/10/14 05:11:25;;;;;;;3.65;0.82;;;14.40;99.90;;;;;;5129678;27;20033;-86
2023/10/14 05:14:08;;;;;;;3.20;1.00;;;14.20;99.90;;;;;;5136516;27;20147;-90
2023/10/14 05:16:53;;;;;;;3.63;1.10;;;14.00;99.90;;;;;;5131720;27;20098;-79
2023/10/14 05:19:30;;;;;;;3.60;1.38;;;13.90;99.90;;;;;;5125033;27;21069;-83
2023/10/14 05:21:57;;;;;;;15.07;2.08;;;13.80;99.90;;;;;;5122143;27;20066;-84
2023/10/14 05:24:28;;;;;;;4.75;1.10;;;13.80;99.90;;;;;;5127630;27;20015;-86
2023/10/14 05:29:51;;;;;;;3.00;0.80;;;13.70;99.90;;;;;;5111796;27;20073;-81
2023/10/14 05:32:30;;;;;;;1.98;0.75;;;13.70;99.90;;;;;;5117107;27;20382;-82
2023/10/14 05:34:59;;;;;;;6.70;0.90;;;13.50;99.90;;;;;;5117564;27;20223;-81
2023/10/14 05:37:34;;;;;;;3.35;1.02;;;13.40;99.90;;;;;;5119312;27;20030;-83
2023/10/14 05:40:04;;;;;;;2.67;0.80;;;13.40;99.90;;;;;;5132607;27;20034;-84
2023/10/14 05:42:30;;;;;;;4.55;0.70;;;13.30;99.90;;;;;;5126012;27;20030;-86
2023/10/14 05:45:01;;;;;;;2.30;0.90;;;13.20;99.90;;;;;;5116529;27;20448;-84
2023/10/14 05:47:29;;;;;;;3.72;1.25;;;13.20;99.90;;;;;;5120969;27;20027;-85
2023/10/14 05:49:55;;;;;;;10.32;1.10;;;13.10;99.90;;;;;;5104600;27;20025;-85
2023/10/14 05:52:24;;;;;;;2.22;0.77;;;13.10;99.90;;;;;;5122296;27;20038;-84
2023/10/14 05:54:52;;;;;;;3.03;0.88;;;13.10;99.90;;;;;;5127080;27;20423;-81
2023/10/14 05:57:22;;;;;;;1.77;0.80;;;13.10;99.90;;;;;;5121641;27;20091;-83
2023/10/14 05:59:53;;;;;;;4.32;1.00;;;13.10;99.90;;;;;;5125436;27;20023;-82
2023/10/14 06:02:19;;;;;;;3.78;0.90;;;13.20;99.90;;;;;;5125435;27;20072;-82
2023/10/14 06:04:45;;;;;;;2.50;1.08;;;13.10;99.90;;;;;;5125621;27;20107;-85
2023/10/14 06:07:12;;;;;;;1.70;0.63;;;13.10;99.90;;;;;;5130883;27;20664;-85
2023/10/14 06:09:45;;;;;;;4.38;0.80;;;13.10;99.90;;;;;;5123452;27;20625;-87
2023/10/14 06:12:14;;;;;;;2.40;0.70;;;13.10;99.90;;;;;;5125798;27;20019;-83
2023/10/14 06:14:43;;;;;;;1.20;0.75;;;13.20;99.90;;;;;;5122415;27;20160;-85
2023/10/14 06:17:11;;;;;;;0.50;0.50;;;13.20;99.90;;;;;;5116555;27;20372;-85
2023/10/14 06:19:37;;;;;;;4.18;0.70;;;13.30;99.90;;;;;;5122037;27;20031;-85
2023/10/14 06:22:03;;;;;;;3.88;0.90;;;13.30;99.90;;;;;;5116408;27;20605;-82
2023/10/14 06:24:29;;;;;;;6.18;0.80;;;13.30;99.90;;;;;;5126513;27;20022;-88
2023/10/14 06:27:08;;;;;;;6.15;2.08;;;13.30;99.90;;;;;;5113297;27;20037;-82
2023/10/14 06:29:37;;;;;;;2.25;0.65;;;13.30;99.90;;;;;;5120463;27;20028;-85
2023/10/14 06:32:04;;;;;;;3.10;0.73;;;13.40;99.90;;;;;;5120642;27;20125;-87
2023/10/14 06:34:34;;;;;;;5.30;1.10;;;13.40;99.90;;;;;;5130211;27;20046;-83
2023/10/14 06:37:02;;;;;;;3.35;0.88;;;13.40;99.90;;;;;;5128712;27;20026;-88
2023/10/14 06:39:36;;;;;;;4.57;1.02;;;13.30;99.90;;;;;;5127226;27;20030;-83
2023/10/14 06:42:04;;;;;;;;;;;13.20;99.90;;;;;;5117904;27;20740;-85
2023/10/14 06:44:32;;;;;;;;;;;13.10;99.90;;;;;;5121483;27;19994;-84
2023/10/14 06:46:59;;;;;;;6.50;1.80;;;13.00;99.90;;;;;;5120754;27;19910;-83
2023/10/14 06:49:32;;;;;;;2.65;1.08;;;13.00;99.90;;;;;;5116897;27;20097;-87
2023/10/14 06:51:59;;;;;;;5.28;1.70;;;12.90;99.90;;;;;;5123006;27;20022;-87
2023/10/14 06:54:25;;;;;;;8.13;1.73;;;12.90;99.90;;;;;;5126422;27;20489;-84
2023/10/14 06:56:53;;;;;;;10.02;2.50;;;12.80;99.90;;;;;;5116547;27;20016;-84
2023/10/14 06:59:20;;;;;;;13.73;3.05;;;12.80;99.90;;;;;;5134152;27;20111;-83
2023/10/14 07:01:46;;;;;;;8.63;1.38;;;12.70;99.90;;;;;;5122823;27;20018;-86
2023/10/14 07:04:16;;;;;;;5.57;1.38;;;12.70;99.90;;;;;;5125411;27;20018;-86
2023/10/14 07:06:52;;;;;;;11.25;1.63;;;12.70;99.90;;;;;;5113302;27;20015;-85
2023/10/14 07:09:17;;;;;;;6.20;1.70;;;12.70;99.90;;;;;;5121814;27;20355;-84
2023/10/14 07:11:46;;;;;;;17.40;1.73;;;12.60;99.90;;;;;;5125749;27;20023;-84
2023/10/14 07:14:12;;;;;;;8.38;1.65;;;12.60;99.90;;;;;;5128646;27;20035;-86
2023/10/14 07:16:38;;;;;;;12.95;4.93;;;12.60;99.90;;;;;;5127193;27;20125;-84
2023/10/14 07:19:07;;;;;;;13.30;1.90;;;12.60;99.90;;;;;;5122631;27;20023;-83
2023/10/14 07:21:33;;;;;;;11.75;2.10;;;12.60;99.90;;;;;;5128806;27;20038;-83
2023/10/14 07:24:05;;;;;;;17.10;3.33;;;12.60;99.90;;;;;;5133287;27;20023;-81
2023/10/14 07:26:36;;;;;;;16.15;3.90;;;12.60;99.90;;;;;;5126092;27;20083;-82
2023/10/14 07:29:03;;;;;;;14.75;3.25;;;12.60;99.90;;;;;;5113824;27;20203;-86
2023/10/14 07:31:31;;;;;;;14.68;3.22;;;12.40;99.90;;;;;;5118227;27;20260;-86
2023/10/14 07:34:02;;;;;;;9.63;2.85;;;12.40;99.90;;;;;;5124558;27;20147;-82
2023/10/14 07:36:29;;;;;;;12.82;2.75;;;12.30;99.90;;;;;;5121998;27;20027;-84
2023/10/14 07:39:08;;;;;;;14.77;2.35;;;12.20;99.90;;;;;;5120791;27;20019;-84
2023/10/14 07:41:36;;;;;;;14.80;2.85;;;12.20;99.90;;;;;;5119775;27;20046;-84
2023/10/14 07:44:01;;;;;;;24.02;3.10;;;12.20;99.90;;;;;;5123809;27;20455;-91
2023/10/14 07:46:27;;;;;;;16.58;2.60;;;12.10;99.90;;;;;;5133843;27;20068;-86
2023/10/14 07:48:53;;;;;;;13.90;2.70;;;12.20;99.90;;;;;;5116085;27;20039;-80
2023/10/14 07:51:19;;;;;;;12.07;2.30;;;12.10;99.90;;;;;;5113709;27;20046;-84
2023/10/14 07:53:45;;;;;;;12.27;2.35;;;12.10;99.90;;;;;;5125252;27;20051;-85
2023/10/14 07:56:10;;;;;;;18.90;2.50;;;12.10;99.90;;;;;;5138253;27;20062;-86
2023/10/14 07:58:37;;;;;;;17.65;2.65;;;12.20;99.90;;;;;;5124733;27;20504;-85
2023/10/14 08:01:09;;;;;;;23.70;3.35;;;12.30;99.90;;;;;;5116162;27;20321;-83
2023/10/14 08:03:36;;;;;;;13.95;2.47;;;12.30;99.90;;;;;;5119994;27;20027;-82
2023/10/14 08:06:05;;;;;;;13.55;2.72;;;12.30;99.90;;;;;;5117182;27;20030;-85
2023/10/14 08:08:31;;;;;;;18.10;2.95;;;12.30;99.90;;;;;;5119858;27;20298;-85
2023/10/14 08:10:58;;;;;;;11.00;2.42;;;12.30;99.90;;;;;;5129601;27;20412;-85
2023/10/14 08:13:24;;;;;;;16.77;3.10;;;12.40;99.90;;;;;;5131895;27;20455;-84
2023/10/14 08:15:55;;;;;;;20.02;3.13;;;12.40;99.90;;;;;;5130516;27;20035;-85
2023/10/14 08:18:25;;;;;;;27.50;5.22;;;12.40;99.90;;;;;;5118332;27;20053;-82
2023/10/14 08:20:55;;;;;;;18.50;3.20;;;12.40;99.90;;;;;;5124073;27;20047;-82
2023/10/14 08:23:25;;;;;;;17.10;3.60;;;12.40;99.90;;;;;;5128855;27;20084;-86
2023/10/14 08:25:54;;;;;;;34.03;4.63;;;12.50;99.90;;;;;;5125277;27;20110;-83
2023/10/14 08:28:27;;;;;;;23.38;4.15;;;12.50;99.90;;;;;;5117273;27;20023;-81
2023/10/14 08:30:57;;;;;;;17.77;2.53;;;12.50;99.90;;;;;;5126530;27;20038;-88
2023/10/14 08:33:25;;;;;;;25.88;5.15;;;12.50;99.90;;;;;;5107926;27;20585;-81
2023/10/14 08:35:57;;;;;;;14.50;2.60;;;12.50;99.90;;;;;;5127653;27;20054;-86
2023/10/14 08:38:27;;;;;;;12.25;2.78;;;12.50;99.90;;;;;;5121215;27;20512;-87
2023/10/14 08:40:56;;;;;;;8.48;2.65;;;12.60;99.90;;;;;;5123596;27;20060;-87
2023/10/14 08:43:26;;;;;;;18.02;2.83;;;12.70;99.90;;;;;;5130383;27;20026;-89
2023/10/14 08:45:54;;;;;;;15.38;2.72;;;12.60;99.90;;;;;;5132397;27;20111;-82
2023/10/14 08:48:25;;;;;;;17.08;4.28;;;12.70;99.90;;;;;;5115683;27;20019;-87
2023/10/14 08:50:57;;;;;;;18.38;3.28;;;12.70;99.90;;;;;;5115880;27;20046;-84
2023/10/14 08:53:27;;;;;;;12.52;2.35;;;12.70;99.90;;;;;;5137422;27;20081;-90
2023/10/14 08:55:53;;;;;;;14.15;2.28;;;12.70;99.90;;;;;;5119700;27;20035;-87
2023/10/14 08:58:22;;;;;;;16.88;2.53;;;12.70;99.90;;;;;;5127666;27;20023;-84
2023/10/14 09:00:48;;;;;;;18.67;2.97;;;12.80;99.90;;;;;;5133447;27;20011;-83
2023/10/14 09:03:15;;;;;;;13.07;2.33;;;12.80;99.90;;;;;;5138358;27;20419;-86
2023/10/14 09:05:44;;;;;;;24.52;2.97;;;12.90;99.90;;;;;;5134982;27;20023;-86
2023/10/14 09:08:12;;;;;;;20.90;3.05;;;13.00;99.90;;;;;;5121492;27;20054;-86
2023/10/14 09:10:38;;;;;;;11.80;2.50;;;13.10;99.90;;;;;;5135141;27;20462;-84
2023/10/14 09:13:19;;;;;;;16.17;4.22;;;13.20;99.90;;;;;;5131656;27;20031;-87
2023/10/14 09:15:45;;;;;;;11.15;2.17;;;13.20;99.90;;;;;;5128134;27;20015;-84
2023/10/14 09:18:21;;;;;;;17.40;2.50;;;13.30;99.90;;;;;;5127020;27;20027;-86
2023/10/14 09:20:55;;;;;;;12.80;2.55;;;13.40;99.90;;;;;;5133978;27;20067;-88
2023/10/14 09:23:24;;;;;;;14.68;2.97;;;13.40;99.90;;;;;;5127187;27;20015;-83
2023/10/14 09:25:56;;;;;;;12.73;2.58;;;13.40;99.90;;;;;;5126240;27;20019;-87
2023/10/14 09:28:33;;;;;;;7.18;1.52;;;13.30;99.90;;;;;;5134903;27;20034;-87
2023/10/14 09:31:02;;;;;;;12.32;2.03;;;13.30;99.90;;;;;;5125066;27;20164;-84
2023/10/14 09:33:34;;;;;;;9.73;2.03;;;13.40;99.90;;;;;;5137304;27;20175;-84
2023/10/14 09:36:03;;;;;;;15.88;2.38;;;13.40;99.90;;;;;;5131021;27;20022;-85
2023/10/14 09:38:32;;;;;;;17.77;3.15;;;13.40;99.90;;;;;;5134321;27;20023;-85
2023/10/14 09:41:03;;;;;;;15.80;2.10;;;13.40;99.90;;;;;;5129366;27;20106;-86
2023/10/14 09:43:29;;;;;;;10.23;2.03;;;13.40;99.90;;;;;;5139539;27;20025;-88
2023/10/14 09:45:57;;;;;;;10.55;2.00;;;13.50;99.90;;;;;;5145378;27;20034;-91
2023/10/14 09:48:27;;;;;;;11.95;3.05;;;13.50;99.90;;;;;;5133961;27;20383;-84
2023/10/14 09:51:00;;;;;;;10.63;2.17;;;13.50;99.90;;;;;;5136700;27;20348;-83
2023/10/14 09:53:27;;;;;;;12.52;2.22;;;13.60;99.90;;;;;;5130395;27;20413;-83
2023/10/14 09:56:04;;;;;;;11.65;2.08;;;13.60;99.90;;;;;;5125412;27;20521;-86
2023/10/14 09:58:31;;;;;;;13.68;2.88;;;13.70;99.90;;;;;;5132941;27;20953;-85
2023/10/14 10:01:03;;;;;;;16.23;3.70;;;13.70;99.90;;;;;;5140330;27;20031;-84
2023/10/14 10:03:35;;;;;;;11.50;2.20;;;13.70;99.90;;;;;;5138996;27;20027;-84
2023/10/14 10:06:26;;;;;;;16.15;2.65;;;13.60;99.90;;;;;;5127053;27;20430;-82
2023/10/14 10:09:34;;;;;;;10.73;2.10;;;13.70;99.90;;;;;;5112746;27;20035;-85
2023/10/14 10:12:04;;;;;;;9.90;2.33;;;13.70;99.90;;;;;;5089701;27;20604;-83
2023/10/14 10:14:36;;;;;;;12.50;1.92;;;13.80;99.90;;;;;;5139128;27;20331;-84
2023/10/14 10:17:08;;;;;;;16.27;2.42;;;13.90;99.90;;;;;;5121523;27;20117;-84
2023/10/14 10:20:25;;;;;;;11.57;2.47;;;14.00;99.90;;;;;;5131118;27;20033;-83
2023/10/14 10:22:52;;;;;;;7.63;1.87;;;14.10;99.90;;;;;;5121105;27;20019;-82
2023/10/14 10:25:50;;;;;;;17.23;3.20;;;14.20;99.90;;;;;;5110291;27;20023;-84
2023/10/14 10:28:27;;;;;;;12.68;2.03;;;14.40;99.90;;;;;;5116133;27;20031;-83
2023/10/14 10:31:03;;;;;;;12.30;2.42;;;14.50;99.90;;;;;;5120970;27;20026;-84
2023/10/14 10:33:49;;;;;;;;;;;14.60;99.90;;;;;;5126105;27;20074;-84
2023/10/14 10:36:25;;;;;;;10.18;2.15;;;14.60;99.90;;;;;;5137302;27;19943;-83
2023/10/14 10:38:55;;;;;;;9.63;1.88;;;14.50;99.90;;;;;;5133777;27;20023;-82
2023/10/14 10:41:25;;;;;;;13.55;2.78;;;14.40;99.90;;;;;;5132364;27;20026;-83
2023/10/14 10:44:05;;;;;;;17.85;2.03;;;14.30;99.90;;;;;;5116812;27;20046;-84
2023/10/14 10:46:55;;;;;;;11.35;3.45;;;14.10;99.90;;;;;;5114887;27;20030;-86
2023/10/14 10:49:48;;;;;;;18.25;3.45;;;14.00;99.90;;;;;;5126684;27;20043;-83
2023/10/14 10:52:14;;;;;;;15.00;2.33;;;13.80;99.90;;;;;;5121153;27;20038;-93
2023/10/14 10:54:45;;;;;;;10.68;2.35;;;13.80;99.90;;;;;;5137410;27;20027;-88
2023/10/14 10:57:12;;;;;;;12.43;2.00;;;13.80;99.90;;;;;;5131441;27;20019;-83
2023/10/14 10:59:39;;;;;;;12.45;2.22;;;13.80;99.90;;;;;;5128171;27;20023;-87
2023/10/14 11:02:08;;;;;;;13.13;2.20;;;13.90;99.90;;;;;;5128097;27;21240;-82
2023/10/14 11:04:34;;;;;;;11.02;2.42;;;14.00;99.90;;;;;;5124640;27;20043;-87
2023/10/14 11:07:00;;;;;;;14.27;3.25;;;14.00;99.90;;;;;;5132162;27;20038;-87
2023/10/14 11:09:29;;;;;;;9.70;2.67;;;14.10;99.90;;;;;;5132647;27;20029;-83
2023/10/14 11:12:03;;;;;;;9.80;1.90;;;14.20;99.90;;;;;;5131516;27;20047;-92
2023/10/14 11:14:30;;;;;;;14.25;2.75;;;14.20;99.90;;;;;;5121423;27;20089;-86
2023/10/14 11:16:59;;;;;;;10.98;2.05;;;14.20;99.90;;;;;;5127448;27;20023;-84
2023/10/14 11:19:26;;;;;;;13.73;2.33;;;14.30;99.90;;;;;;5128041;27;20023;-94
2023/10/14 11:22:12;;;;;;;13.45;2.55;;;14.30;99.90;;;;;;5124078;27;20027;-84
2023/10/14 11:24:41;;;;;;;12.88;2.80;;;14.40;99.90;;;;;;5118655;27;20034;-84
2023/10/14 11:27:07;;;;;;;8.55;2.55;;;14.50;99.90;;;;;;5121082;27;20080;-86
2023/10/14 11:29:33;;;;;;;11.38;2.13;;;14.50;99.90;;;;;;5133805;27;20023;-85
2023/10/14 11:32:02;;;;;;;11.05;1.80;;;14.50;99.90;;;;;;5134758;27;20062;-83
2023/10/14 11:34:35;;;;;;;17.42;2.03;;;14.60;99.90;;;;;;5126444;27;20366;-90
2023/10/14 11:37:01;;;;;;;14.63;2.78;;;14.70;99.90;;;;;;5130356;27;20095;-84
2023/10/14 11:39:28;;;;;;;17.55;2.35;;;14.70;99.90;;;;;;5118396;27;20110;-84
2023/10/14 11:41:54;;;;;;;10.90;1.77;;;14.60;99.90;;;;;;5123405;27;20461;-84
2023/10/14 11:44:19;;;;;;;16.00;1.85;;;14.60;99.90;;;;;;5116010;27;20019;-83
2023/10/14 11:46:46;;;;;;;9.63;1.67;;;14.60;99.90;;;;;;5116453;27;20038;-88
2023/10/14 11:49:12;;;;;;;12.95;2.13;;;14.50;99.90;;;;;;5130286;27;20035;-85
2023/10/14 11:51:46;;;;;;;12.20;2.17;;;14.50;99.90;;;;;;5126050;27;20466;-84
2023/10/14 11:54:11;;;;;;;11.27;2.30;;;14.50;99.90;;;;;;5138233;27;20030;-87
2023/10/14 11:56:40;;;;;;;12.43;2.58;;;14.40;99.90;;;;;;5131963;27;20023;-84
2023/10/14 11:59:06;;;;;;;18.67;2.08;;;14.30;99.90;;;;;;5128957;27;20394;-86
2023/10/14 12:01:35;;;;;;;13.52;2.33;;;14.20;99.90;;;;;;5115885;27;20030;-85
2023/10/14 12:04:02;;;;;;;13.45;2.25;;;14.10;99.90;;;;;;5132418;27;20050;-86
2023/10/14 12:06:30;;;;;;;14.82;2.53;;;13.90;99.90;;;;;;5131760;27;20427;-85
2023/10/14 12:08:56;;;;;;;15.40;2.60;;;13.70;99.90;;;;;;5131817;27;20023;-88
2023/10/14 12:11:22;;;;;;;14.55;2.30;;;13.50;99.90;;;;;;5134885;27;20030;-82
2023/10/14 12:13:50;;;;;;;11.82;2.20;;;13.40;99.90;;;;;;5123585;27;20035;-87
2023/10/14 12:16:17;;;;;;;16.13;2.60;;;13.30;99.90;;;;;;5124190;27;20015;-86
2023/10/14 12:18:45;;;;;;;19.58;2.92;;;13.30;99.90;;;;;;5124899;27;20030;-84
2023/10/14 12:21:11;;;;;;;15.77;3.03;;;13.30;99.90;;;;;;5129044;27;20341;-91
2023/10/14 12:23:38;;;;;;;11.10;2.50;;;13.50;99.90;;;;;;5131815;27;20443;-87
2023/10/14 12:26:04;;;;;;;17.98;2.80;;;13.60;99.90;;;;;;5132850;27;20196;-83
2023/10/14 12:28:31;;;;;;;12.00;2.45;;;13.60;99.90;;;;;;5124957;27;20038;-86
2023/10/14 12:31:06;;;;;;;16.85;2.97;;;13.70;99.90;;;;;;5128847;27;20022;-88
2023/10/14 12:33:35;;;;;;;16.52;2.85;;;13.80;99.90;;;;;;5131113;27;20049;-88
2023/10/14 12:36:08;;;;;;;24.42;2.80;;;13.80;99.90;;;;;;5124442;27;20031;-87
2023/10/14 12:38:35;;;;;;;16.85;2.17;;;13.90;99.90;;;;;;5128323;27;20027;-86
2023/10/14 12:41:02;;;;;;;14.93;2.38;;;14.10;99.90;;;;;;5134870;27;20026;-87
2023/10/14 12:43:33;;;;;;;14.48;2.33;;;14.20;99.90;;;;;;5130167;27;20035;-87
2023/10/14 12:46:14;;;;;;;16.02;2.92;;;14.30;99.90;;;;;;5108691;27;20026;-87
2023/10/14 12:48:43;;;;;;;18.08;2.85;;;14.40;99.90;;;;;;5120717;27;20023;-88
2023/10/14 12:51:25;;;;;;;11.65;2.90;;;14.40;99.90;;;;;;5122864;27;20068;-84
2023/10/14 12:53:57;;;;;;;16.33;2.83;;;14.40;99.90;;;;;;5126910;27;20542;-86
2023/10/14 12:56:23;;;;;;;13.55;2.92;;;14.40;99.90;;;;;;5119088;27;20039;-85
2023/10/14 12:58:52;;;;;;;11.77;2.55;;;14.40;99.90;;;;;;5121908;27;20020;-82
2023/10/14 13:01:21;;;;;;;12.18;2.50;;;14.30;99.90;;;;;;5122431;27;20046;-84
2023/10/14 13:03:56;;;;;;;14.90;2.50;;;14.40;99.90;;;;;;5124322;27;20072;-85
2023/10/14 13:06:23;;;;;;;12.57;2.38;;;14.40;99.90;;;;;;5127629;27;20077;-84
2023/10/14 13:08:59;;;;;;;14.55;2.35;;;14.50;99.90;;;;;;5127763;27;20023;-85
2023/10/14 13:11:29;;;;;;;16.58;2.60;;;14.40;99.90;;;;;;5121376;27;20019;-83
2023/10/14 13:13:55;;;;;;;8.38;2.33;;;14.40;99.90;;;;;;5125051;27;20414;-84
2023/10/14 13:16:22;;;;;;;20.33;2.88;;;14.40;99.90;;;;;;5123725;27;20023;-85
2023/10/14 13:18:49;;;;;;;19.17;2.58;;;14.40;99.90;;;;;;5133143;27;20422;-88
2023/10/14 13:21:18;;;;;;;21.55;4.03;;;14.50;99.90;;;;;;5132610;27;20212;-83
2023/10/14 13:23:46;;;;;;;14.02;2.50;;;14.50;99.90;;;;;;5130547;27;20023;-86
2023/10/14 13:26:15;;;;;;;13.45;3.00;;;14.50;99.90;;;;;;5130718;27;20047;-85
2023/10/14 13:28:45;;;;;;;19.48;3.70;;;14.50;99.90;;;;;;5135921;27;20030;-86
2023/10/14 13:31:15;;;;;;;14.05;2.63;;;14.50;99.90;;;;;;5133838;27;20023;-91
2023/10/14 13:33:41;;;;;;;18.48;3.25;;;14.50;99.90;;;;;;5128291;27;20146;-87
2023/10/14 13:36:09;;;;;;;12.73;3.15;;;14.50;99.90;;;;;;5130451;27;20027;-84
2023/10/14 13:38:39;;;;;;;15.00;2.38;;;14.40;99.90;;;;;;5125248;27;20075;-85
2023/10/14 13:41:15;;;;;;;14.77;2.47;;;14.30;99.90;;;;;;5132403;27;20027;-85
2023/10/14 13:43:44;;;;;;;11.65;2.20;;;14.30;99.90;;;;;;5125189;27;20042;-84
2023/10/14 13:46:10;;;;;;;14.88;2.55;;;14.20;99.90;;;;;;5126791;27;20058;-85
2023/10/14 13:48:36;;;;;;;12.98;2.17;;;14.20;99.90;;;;;;5132203;27;20111;-84
2023/10/14 13:51:02;;;;;;;14.52;2.78;;;14.10;99.90;;;;;;5128787;27;20459;-83